Time;durP1;ratioP1;P1;durP2;ratioP2;P2;SDS_P1;SDS_P2;PMS_P1;PMS_P2;Temp;Humidity;BMP_temperature;BMP_pressure;BME280_temperature;BME280_humidity;BME280_pressure;Samples;Min_cycle;Max_cycle;Signal;HPM_P1;HPM_P2
2023/11/29 00:01:12;;;;;;;12.20;7.32;;;8.60;99.90;;;;;;4971551;28;20031;-76
2023/11/29 00:03:37;;;;;;;12.02;6.53;;;8.60;99.90;;;;;;4973105;28;20027;-77
2023/11/29 00:06:03;;;;;;;10.80;7.18;;;8.60;99.90;;;;;;4979034;28;20023;-76
2023/11/29 00:08:29;;;;;;;12.98;6.57;;;8.60;99.90;;;;;;4972797;28;20026;-76
2023/11/29 00:10:55;;;;;;;12.40;7.55;;;8.50;99.90;;;;;;4973270;28;20026;-76
2023/11/29 00:13:20;;;;;;;11.98;6.68;;;8.50;99.90;;;;;;4974804;28;20030;-77
2023/11/29 00:15:47;;;;;;;11.68;7.57;;;8.60;99.90;;;;;;4972518;28;20027;-77
2023/11/29 00:18:13;;;;;;;11.35;6.72;;;8.60;99.90;;;;;;4972098;28;20034;-76
2023/11/29 00:20:38;;;;;;;10.50;6.50;;;8.50;99.90;;;;;;4972958;28;20031;-76
2023/11/29 00:23:04;;;;;;;11.55;7.47;;;8.60;99.90;;;;;;4968788;28;20027;-78
2023/11/29 00:25:30;;;;;;;9.77;6.47;;;8.60;99.90;;;;;;4972970;28;20552;-77
2023/11/29 00:27:55;;;;;;;14.35;7.15;;;8.60;99.90;;;;;;4972968;28;20030;-76
2023/11/29 00:30:21;;;;;;;9.98;6.40;;;8.60;99.90;;;;;;4972422;28;20452;-76
2023/11/29 00:32:46;;;;;;;11.30;6.80;;;8.60;99.90;;;;;;4972263;28;20077;-77
2023/11/29 00:35:12;;;;;;;12.35;7.13;;;8.60;99.90;;;;;;4972308;28;20488;-76
2023/11/29 00:37:37;;;;;;;12.75;6.85;;;8.50;99.90;;;;;;4972017;28;20058;-76
2023/11/29 00:40:03;;;;;;;13.38;7.00;;;8.60;99.90;;;;;;4971721;28;20033;-76
2023/11/29 00:42:28;;;;;;;11.07;7.47;;;8.50;99.90;;;;;;4972353;28;20102;-76
2023/11/29 00:44:54;;;;;;;9.57;7.38;;;8.50;99.90;;;;;;4972471;28;20037;-76
2023/11/29 00:47:20;;;;;;;10.30;6.88;;;8.50;99.90;;;;;;4971653;28;20030;-77
2023/11/29 00:49:45;;;;;;;10.95;6.57;;;8.50;99.90;;;;;;4972570;28;20078;-76
2023/11/29 00:52:11;;;;;;;11.70;6.90;;;8.50;99.90;;;;;;4970872;28;20054;-77
2023/11/29 00:54:37;;;;;;;12.73;7.95;;;8.50;99.90;;;;;;4970681;28;20023;-78
2023/11/29 00:57:02;;;;;;;12.48;7.30;;;8.50;99.90;;;;;;4970781;28;20034;-77
2023/11/29 00:59:28;;;;;;;9.48;6.47;;;8.50;99.90;;;;;;4972141;28;20026;-77
2023/11/29 01:01:53;;;;;;;13.50;7.53;;;8.50;99.90;;;;;;4970947;28;20035;-77
2023/11/29 01:04:19;;;;;;;16.08;6.85;;;8.50;99.90;;;;;;4971681;28;20022;-77
2023/11/29 01:06:44;;;;;;;14.77;7.63;;;8.50;99.90;;;;;;4971820;28;20070;-76
2023/11/29 01:09:10;;;;;;;12.27;7.35;;;8.50;99.90;;;;;;4972018;28;20051;-76
2023/11/29 01:11:35;;;;;;;11.02;6.35;;;8.50;99.90;;;;;;4971715;28;20114;-76
2023/11/29 01:14:01;;;;;;;11.57;6.60;;;8.50;99.90;;;;;;4971497;28;20150;-77
2023/11/29 01:16:27;;;;;;;10.38;7.00;;;8.50;99.90;;;;;;4985162;28;20030;-76
2023/11/29 01:18:52;;;;;;;12.25;7.20;;;8.50;99.90;;;;;;4970270;28;20031;-77
2023/11/29 01:21:18;;;;;;;10.70;7.07;;;8.50;99.90;;;;;;4970752;28;20025;-77
2023/11/29 01:23:43;;;;;;;11.88;6.63;;;8.50;99.90;;;;;;4971512;28;20027;-77
2023/11/29 01:26:09;;;;;;;13.82;7.50;;;8.50;99.90;;;;;;4967843;28;20031;-76
2023/11/29 01:28:35;;;;;;;10.80;6.88;;;8.50;99.90;;;;;;4971741;28;20037;-76
2023/11/29 01:31:06;;;;;;;10.40;7.05;;;8.50;99.90;;;;;;4971048;28;20023;-77
2023/11/29 01:33:32;;;;;;;10.43;6.65;;;8.50;99.90;;;;;;4968034;28;20027;-78
2023/11/29 01:35:58;;;;;;;10.95;7.13;;;8.50;99.90;;;;;;4972366;28;20034;-76
2023/11/29 01:38:23;;;;;;;10.95;6.85;;;8.50;99.90;;;;;;4970622;28;20392;-76
2023/11/29 01:40:49;;;;;;;11.75;7.38;;;8.50;99.90;;;;;;4971392;28;20022;-77
2023/11/29 01:43:14;;;;;;;12.27;6.68;;;8.50;99.90;;;;;;4971061;28;20030;-75
2023/11/29 01:45:40;;;;;;;12.73;7.90;;;8.50;99.90;;;;;;4971174;28;20035;-77
2023/11/29 01:48:05;;;;;;;11.50;7.05;;;8.50;99.90;;;;;;4969973;28;20034;-74
2023/11/29 01:50:35;;;;;;;11.32;7.53;;;8.50;99.90;;;;;;4970930;28;20065;-76
2023/11/29 01:53:02;;;;;;;11.18;7.57;;;8.50;99.90;;;;;;4969951;28;20035;-76
2023/11/29 01:55:28;;;;;;;13.82;6.78;;;8.50;99.90;;;;;;4971007;28;20038;-76
2023/11/29 01:57:54;;;;;;;11.75;7.07;;;8.50;99.90;;;;;;4971048;28;20492;-77
2023/11/29 02:00:20;;;;;;;10.18;6.57;;;8.50;99.90;;;;;;4973873;28;20174;-75
2023/11/29 02:02:46;;;;;;;12.35;8.30;;;8.50;99.90;;;;;;4970737;28;20062;-78
2023/11/29 02:05:12;;;;;;;8.80;6.22;;;8.50;99.90;;;;;;4970558;28;20638;-76
2023/11/29 02:07:38;;;;;;;11.43;7.68;;;8.40;99.90;;;;;;4967502;28;20162;-77
2023/11/29 02:10:06;;;;;;;14.13;8.02;;;8.50;99.90;;;;;;4971119;28;20051;-76
2023/11/29 02:12:35;;;;;;;12.65;7.32;;;8.50;99.90;;;;;;4967143;28;20031;-77
2023/11/29 02:15:00;;;;;;;10.70;6.80;;;8.40;99.90;;;;;;4969436;28;20081;-77
2023/11/29 02:17:26;;;;;;;13.23;6.95;;;8.50;99.90;;;;;;4970105;28;20023;-75
2023/11/29 02:19:51;;;;;;;12.43;7.10;;;8.40;99.90;;;;;;4970502;28;20033;-76
2023/11/29 02:22:19;;;;;;;12.65;7.68;;;8.40;99.90;;;;;;4969341;28;20388;-75
2023/11/29 02:24:48;;;;;;;13.98;7.38;;;8.40;99.90;;;;;;4969150;28;20027;-77
2023/11/29 02:27:13;;;;;;;13.35;7.72;;;8.50;99.90;;;;;;4970224;28;20055;-76
2023/11/29 02:29:39;;;;;;;15.45;6.78;;;8.40;99.90;;;;;;4970619;28;20062;-77
2023/11/29 02:32:07;;;;;;;15.05;8.23;;;8.40;99.90;;;;;;4970614;28;20054;-77
2023/11/29 02:34:36;;;;;;;11.65;7.18;;;8.40;99.90;;;;;;4970257;28;20027;-77
2023/11/29 02:37:03;;;;;;;13.35;7.38;;;8.40;99.90;;;;;;4965721;28;20115;-76
2023/11/29 02:39:29;;;;;;;12.00;7.15;;;8.40;99.90;;;;;;4968905;28;20046;-76
2023/11/29 02:41:54;;;;;;;11.85;7.00;;;8.40;99.90;;;;;;4974548;28;20029;-77
2023/11/29 02:44:20;;;;;;;11.75;7.13;;;8.40;99.90;;;;;;4976943;28;20106;-77
2023/11/29 02:46:46;;;;;;;13.00;6.63;;;8.40;99.90;;;;;;4976574;28;20046;-76
2023/11/29 02:49:11;;;;;;;12.48;7.07;;;8.40;99.90;;;;;;4975521;28;20027;-77
2023/11/29 02:51:37;;;;;;;11.02;6.63;;;8.40;99.90;;;;;;4979702;28;20522;-73
2023/11/29 02:54:02;;;;;;;12.68;7.88;;;8.40;99.90;;;;;;4976780;28;20030;-76
2023/11/29 02:56:28;;;;;;;13.65;8.05;;;8.40;99.90;;;;;;4976959;28;20023;-76
2023/11/29 02:58:54;;;;;;;10.40;7.00;;;8.40;99.90;;;;;;4975286;28;20496;-77
2023/11/29 03:01:19;;;;;;;12.00;6.97;;;8.40;99.90;;;;;;4976643;28;20105;-76
2023/11/29 03:03:45;;;;;;;14.13;7.55;;;8.40;99.90;;;;;;4976991;28;20062;-76
2023/11/29 03:06:10;;;;;;;12.05;7.05;;;8.40;99.90;;;;;;4978148;28;20110;-75
2023/11/29 03:08:36;;;;;;;15.55;8.00;;;8.40;99.90;;;;;;4976683;28;20037;-77
2023/11/29 03:11:02;;;;;;;14.00;8.00;;;8.40;99.90;;;;;;4976846;28;20500;-77
2023/11/29 03:13:28;;;;;;;11.13;7.25;;;8.40;99.90;;;;;;4972787;28;20034;-77
2023/11/29 03:15:54;;;;;;;13.20;7.97;;;8.40;99.90;;;;;;4974362;28;20099;-75
2023/11/29 03:18:19;;;;;;;13.68;7.95;;;8.40;99.90;;;;;;4970060;28;20042;-76
2023/11/29 03:20:45;;;;;;;16.67;8.15;;;8.40;99.90;;;;;;4976570;28;20062;-76
2023/11/29 03:23:11;;;;;;;12.07;6.85;;;8.40;99.90;;;;;;4974174;28;20019;-77
2023/11/29 03:25:37;;;;;;;13.93;7.50;;;8.40;99.90;;;;;;4979328;28;20093;-76
2023/11/29 03:28:02;;;;;;;13.20;7.35;;;8.40;99.90;;;;;;4976660;28;20113;-77
2023/11/29 03:30:28;;;;;;;14.60;7.25;;;8.40;99.90;;;;;;4978141;28;20476;-76
2023/11/29 03:32:53;;;;;;;11.23;7.00;;;8.40;99.90;;;;;;4976358;28;20406;-77
2023/11/29 03:35:19;;;;;;;13.07;7.35;;;8.40;99.90;;;;;;4974911;28;20231;-77
2023/11/29 03:37:44;;;;;;;12.93;7.13;;;8.40;99.90;;;;;;4979551;28;20018;-77
2023/11/29 03:40:10;;;;;;;11.02;7.10;;;8.40;99.90;;;;;;4976408;28;20019;-76
2023/11/29 03:42:36;;;;;;;12.68;6.75;;;8.40;99.90;;;;;;4976473;28;20023;-76
2023/11/29 03:45:02;;;;;;;12.20;7.30;;;8.40;99.90;;;;;;4974770;28;20507;-76
2023/11/29 03:47:28;;;;;;;12.40;7.05;;;8.40;99.90;;;;;;4976606;28;20054;-76
2023/11/29 03:49:53;;;;;;;13.10;6.50;;;8.40;99.90;;;;;;4976590;28;20031;-77
2023/11/29 03:52:19;;;;;;;12.35;6.75;;;8.40;99.90;;;;;;4972095;28;20019;-77
2023/11/29 03:54:45;;;;;;;12.60;6.80;;;8.40;99.90;;;;;;4972866;28;20033;-76
2023/11/29 03:57:11;;;;;;;11.98;6.63;;;8.40;99.90;;;;;;4973260;28;20065;-77
2023/11/29 03:59:37;;;;;;;14.43;7.38;;;8.40;99.90;;;;;;4972577;28;20042;-77
2023/11/29 04:02:02;;;;;;;10.10;6.28;;;8.40;99.90;;;;;;4978343;28;20031;-77
2023/11/29 04:04:28;;;;;;;11.13;6.93;;;8.40;99.90;;;;;;4976510;28;20090;-76
2023/11/29 04:06:53;;;;;;;10.05;6.03;;;8.40;99.90;;;;;;4972959;28;20062;-76
2023/11/29 04:09:19;;;;;;;10.32;6.28;;;8.40;99.90;;;;;;4970480;28;20086;-76
2023/11/29 04:11:48;;;;;;;10.65;6.50;;;8.30;99.90;;;;;;4975852;28;20018;-76
2023/11/29 04:14:13;;;;;;;10.70;6.45;;;8.30;99.90;;;;;;4971066;28;20029;-77
2023/11/29 04:16:39;;;;;;;11.35;6.95;;;8.40;99.90;;;;;;4969780;28;20102;-76
2023/11/29 04:19:05;;;;;;;11.45;6.43;;;8.40;99.90;;;;;;4973040;28;20081;-77
2023/11/29 04:21:32;;;;;;;12.05;6.78;;;8.40;99.90;;;;;;4971456;28;20093;-76
2023/11/29 04:23:58;;;;;;;11.63;6.43;;;8.40;99.90;;;;;;4972675;28;20029;-75
2023/11/29 04:26:40;;;;;;;10.90;6.18;;;8.30;99.90;;;;;;4972778;28;20106;-77
2023/11/29 04:29:07;;;;;;;13.57;6.68;;;8.30;99.90;;;;;;4972028;28;20090;-76
2023/11/29 04:31:35;;;;;;;13.52;7.45;;;8.30;99.90;;;;;;4971332;28;20038;-77
2023/11/29 04:34:01;;;;;;;11.75;6.65;;;8.30;99.90;;;;;;4972466;28;20038;-77
2023/11/29 04:36:27;;;;;;;12.48;6.53;;;8.30;99.90;;;;;;4972161;28;20473;-77
2023/11/29 04:38:53;;;;;;;11.73;6.88;;;8.30;99.90;;;;;;4970599;28;20053;-77
2023/11/29 04:41:19;;;;;;;13.18;7.07;;;8.30;99.90;;;;;;4972660;28;20023;-77
2023/11/29 04:43:45;;;;;;;12.57;7.18;;;8.30;99.90;;;;;;4974044;28;20026;-77
2023/11/29 04:46:11;;;;;;;15.57;6.22;;;8.30;99.90;;;;;;4971889;28;20027;-77
2023/11/29 04:48:37;;;;;;;12.98;6.43;;;8.30;99.90;;;;;;4971762;28;20022;-77
2023/11/29 04:51:03;;;;;;;15.68;6.72;;;8.30;99.90;;;;;;4972483;28;20045;-77
2023/11/29 04:53:29;;;;;;;11.77;7.03;;;8.30;99.90;;;;;;4971920;28;20037;-78
2023/11/29 04:55:55;;;;;;;12.05;6.80;;;8.30;99.90;;;;;;4972198;28;20065;-76
2023/11/29 04:58:24;;;;;;;13.60;6.97;;;8.30;99.90;;;;;;4972329;28;20030;-77
2023/11/29 05:00:50;;;;;;;14.38;7.22;;;8.30;99.90;;;;;;4986861;28;20030;-76
2023/11/29 05:03:18;;;;;;;12.85;6.97;;;8.30;99.90;;;;;;4968700;28;20502;-74
2023/11/29 05:05:44;;;;;;;13.90;7.13;;;8.30;99.90;;;;;;4973448;28;20029;-76
2023/11/29 05:08:09;;;;;;;12.63;6.97;;;8.30;99.90;;;;;;4971994;28;20026;-75
2023/11/29 05:10:35;;;;;;;14.73;7.70;;;8.30;99.90;;;;;;4972034;28;20575;-77
2023/11/29 05:13:01;;;;;;;17.77;7.70;;;8.30;99.90;;;;;;4971730;28;20027;-76
2023/11/29 05:15:26;;;;;;;16.35;7.25;;;8.30;99.90;;;;;;4975400;28;20019;-77
2023/11/29 05:17:52;;;;;;;16.67;8.40;;;8.30;99.90;;;;;;4977900;28;20467;-77
2023/11/29 05:20:17;;;;;;;15.80;7.53;;;8.30;99.90;;;;;;4970628;28;20054;-77
2023/11/29 05:22:43;;;;;;;15.35;7.57;;;8.30;99.90;;;;;;4971666;28;20023;-76
2023/11/29 05:25:08;;;;;;;13.75;7.20;;;8.30;99.90;;;;;;4971357;28;20027;-76
2023/11/29 05:27:34;;;;;;;19.55;8.23;;;8.30;99.90;;;;;;4971552;28;20034;-76
2023/11/29 05:30:00;;;;;;;18.50;8.20;;;8.30;99.90;;;;;;4971341;28;20027;-76
2023/11/29 05:32:26;;;;;;;12.05;6.95;;;8.30;99.90;;;;;;4970395;28;20105;-76
2023/11/29 05:34:51;;;;;;;15.25;7.63;;;8.30;99.90;;;;;;4972404;28;20031;-76
2023/11/29 05:37:17;;;;;;;13.80;7.15;;;8.30;99.90;;;;;;4970931;28;20023;-76
2023/11/29 05:39:42;;;;;;;13.57;7.55;;;8.30;99.90;;;;;;4974934;28;20404;-76
2023/11/29 05:42:08;;;;;;;14.80;7.00;;;8.30;99.90;;;;;;4971517;28;20034;-77
2023/11/29 05:44:34;;;;;;;12.93;7.72;;;8.30;99.90;;;;;;4974307;28;20027;-77
2023/11/29 05:47:00;;;;;;;19.92;7.18;;;8.30;99.90;;;;;;4971752;28;20033;-76
2023/11/29 05:49:25;;;;;;;12.48;7.63;;;8.30;99.90;;;;;;4971232;28;20054;-75
2023/11/29 05:51:51;;;;;;;12.68;6.93;;;8.30;99.90;;;;;;4971374;28;20077;-76
2023/11/29 05:54:18;;;;;;;12.35;6.80;;;8.30;99.90;;;;;;4970571;28;20023;-76
2023/11/29 05:56:44;;;;;;;14.48;7.32;;;8.30;99.90;;;;;;4971118;28;20022;-76
2023/11/29 05:59:11;;;;;;;16.05;8.07;;;8.30;99.90;;;;;;4969665;28;20496;-76
2023/11/29 06:01:36;;;;;;;15.45;7.70;;;8.20;99.90;;;;;;4970544;28;20034;-77
2023/11/29 06:04:02;;;;;;;14.82;7.43;;;8.20;99.90;;;;;;4970876;28;20673;-76
2023/11/29 06:06:28;;;;;;;13.15;7.40;;;8.20;99.90;;;;;;4970909;28;20408;-77
2023/11/29 06:08:53;;;;;;;14.35;7.82;;;8.20;99.90;;;;;;4970142;28;20046;-77
2023/11/29 06:11:19;;;;;;;16.77;7.18;;;8.20;99.90;;;;;;4970728;28;20170;-76
2023/11/29 06:13:45;;;;;;;13.98;8.05;;;8.20;99.90;;;;;;4971075;28;20018;-77
2023/11/29 06:16:11;;;;;;;17.60;7.78;;;8.20;99.90;;;;;;4968671;28;20022;-76
2023/11/29 06:18:38;;;;;;;13.15;6.80;;;8.20;99.90;;;;;;4975343;28;20015;-76
2023/11/29 06:21:04;;;;;;;14.15;8.18;;;8.20;99.90;;;;;;4970849;28;20030;-76
2023/11/29 06:23:30;;;;;;;18.88;8.05;;;8.20;99.90;;;;;;4970645;28;20555;-76
2023/11/29 06:25:56;;;;;;;15.73;7.95;;;8.20;99.90;;;;;;4970567;28;20050;-76
2023/11/29 06:28:21;;;;;;;19.23;8.45;;;8.20;99.90;;;;;;4970948;28;20081;-76
2023/11/29 06:30:47;;;;;;;17.77;8.35;;;8.20;99.90;;;;;;4974404;28;20035;-76
2023/11/29 06:33:13;;;;;;;15.98;8.10;;;8.20;99.90;;;;;;4969800;28;20027;-76
2023/11/29 06:35:38;;;;;;;14.85;7.28;;;8.20;99.90;;;;;;4970530;28;20089;-76
2023/11/29 06:38:04;;;;;;;17.48;8.20;;;8.20;99.90;;;;;;4970240;28;20019;-73
2023/11/29 06:40:30;;;;;;;16.92;8.80;;;8.20;99.90;;;;;;4970322;28;20065;-76
2023/11/29 06:42:55;;;;;;;18.35;8.48;;;8.20;99.90;;;;;;4969225;28;20015;-77
2023/11/29 06:45:21;;;;;;;14.77;8.27;;;8.20;99.90;;;;;;4970091;28;20022;-76
2023/11/29 06:47:47;;;;;;;16.00;8.55;;;8.20;99.90;;;;;;4970462;28;20102;-77
2023/11/29 06:50:13;;;;;;;14.05;7.47;;;8.20;99.90;;;;;;4967818;28;20050;-76
2023/11/29 06:52:40;;;;;;;17.27;9.43;;;8.20;99.90;;;;;;4966719;28;20030;-76
2023/11/29 06:55:06;;;;;;;18.48;8.30;;;8.20;99.90;;;;;;4965721;28;20089;-78
2023/11/29 06:57:32;;;;;;;14.45;8.45;;;8.20;99.90;;;;;;4963600;28;20027;-77
2023/11/29 06:59:58;;;;;;;14.85;7.47;;;8.20;99.90;;;;;;4964593;28;20027;-76
2023/11/29 07:02:23;;;;;;;17.52;8.35;;;8.20;99.90;;;;;;4968839;28;20023;-76
2023/11/29 07:04:49;;;;;;;13.77;7.72;;;8.20;99.90;;;;;;4972527;28;20031;-76
2023/11/29 07:07:16;;;;;;;18.90;9.23;;;8.20;99.90;;;;;;4974960;28;20030;-76
2023/11/29 07:09:41;;;;;;;13.13;7.43;;;8.20;99.90;;;;;;4969607;28;20027;-76
2023/11/29 07:12:08;;;;;;;16.70;8.25;;;8.20;99.90;;;;;;4967049;28;20030;-77
2023/11/29 07:14:35;;;;;;;14.75;7.65;;;8.20;99.90;;;;;;4968271;28;20023;-78
2023/11/29 07:17:00;;;;;;;16.02;8.57;;;8.20;99.90;;;;;;4966938;28;20493;-77
2023/11/29 07:19:27;;;;;;;16.27;7.85;;;8.20;99.90;;;;;;4966428;28;20031;-77
2023/11/29 07:21:52;;;;;;;14.73;7.78;;;8.20;99.90;;;;;;4962125;28;20054;-77
2023/11/29 07:24:18;;;;;;;13.43;7.28;;;8.20;99.90;;;;;;4960876;28;20090;-76
2023/11/29 07:26:43;;;;;;;15.45;7.75;;;8.20;99.90;;;;;;4963751;28;20073;-77
2023/11/29 07:29:09;;;;;;;14.52;8.32;;;8.20;99.90;;;;;;4964072;28;20031;-78
2023/11/29 07:31:34;;;;;;;13.98;7.13;;;8.20;99.90;;;;;;4971905;28;20057;-76
2023/11/29 07:34:00;;;;;;;11.73;7.03;;;8.20;99.90;;;;;;4970970;28;20054;-76
2023/11/29 07:36:26;;;;;;;13.30;6.50;;;8.20;99.90;;;;;;4966169;28;20061;-77
2023/11/29 07:38:52;;;;;;;13.07;6.72;;;8.20;99.90;;;;;;4968960;28;20054;-77
2023/11/29 07:41:20;;;;;;;14.63;7.00;;;8.20;99.90;;;;;;4973824;28;20106;-76
2023/11/29 07:43:46;;;;;;;10.95;6.25;;;8.20;99.90;;;;;;4978748;28;20516;-75
2023/11/29 07:46:12;;;;;;;11.50;6.70;;;8.20;99.90;;;;;;4973129;28;20019;-77
2023/11/29 07:48:38;;;;;;;14.40;6.28;;;8.20;99.90;;;;;;4971060;28;20038;-77
2023/11/29 07:51:03;;;;;;;10.20;6.05;;;8.10;99.90;;;;;;4972808;28;20019;-77
2023/11/29 07:53:29;;;;;;;13.32;7.07;;;8.10;99.90;;;;;;4971563;28;20122;-76
2023/11/29 07:55:55;;;;;;;10.25;6.20;;;8.20;99.90;;;;;;4973000;28;20069;-76
2023/11/29 07:58:21;;;;;;;10.65;6.55;;;8.10;99.90;;;;;;4975445;28;20492;-76
2023/11/29 08:00:46;;;;;;;10.77;5.90;;;8.10;99.90;;;;;;4971791;28;20026;-76
2023/11/29 08:03:13;;;;;;;12.52;6.40;;;8.10;99.90;;;;;;4974315;28;20034;-76
2023/11/29 08:05:40;;;;;;;9.80;5.68;;;8.10;99.90;;;;;;4973522;28;20093;-77
2023/11/29 08:08:06;;;;;;;18.30;6.97;;;8.10;99.90;;;;;;4973099;28;20023;-75
2023/11/29 08:10:32;;;;;;;12.68;6.15;;;8.10;99.90;;;;;;4972953;28;20113;-77
2023/11/29 08:12:58;;;;;;;10.45;6.38;;;8.10;99.90;;;;;;4972953;28;20019;-76
2023/11/29 08:15:23;;;;;;;4.53;3.03;;;8.10;99.90;;;;;;4972810;28;20405;-72
2023/11/29 08:17:49;;;;;;;4.05;2.70;;;10.20;99.90;;;;;;4972449;28;20026;-73
2023/11/29 08:20:15;;;;;;;5.10;2.70;;;12.20;99.90;;;;;;4972969;28;20399;-73
2023/11/29 08:22:40;;;;;;;5.82;2.78;;;13.10;97.40;;;;;;4972365;28;20019;-74
2023/11/29 08:25:06;;;;;;;6.18;4.13;;;13.40;95.30;;;;;;4972853;28;20078;-77
2023/11/29 08:27:32;;;;;;;5.43;3.95;;;12.20;94.50;;;;;;4972782;28;20027;-76
2023/11/29 08:29:57;;;;;;;8.70;4.78;;;10.20;99.90;;;;;;4972571;28;20551;-76
2023/11/29 08:32:23;;;;;;;8.57;4.70;;;9.30;99.90;;;;;;4972992;28;20099;-76
2023/11/29 08:34:49;;;;;;;10.25;4.97;;;8.80;99.90;;;;;;4967648;28;20488;-77
2023/11/29 08:37:16;;;;;;;8.40;4.80;;;8.60;99.90;;;;;;4972127;28;20023;-76
2023/11/29 08:39:42;;;;;;;7.38;4.50;;;8.50;99.90;;;;;;4972247;28;20030;-76
2023/11/29 08:42:07;;;;;;;8.65;5.18;;;8.40;99.90;;;;;;4972376;28;20110;-76
2023/11/29 08:44:33;;;;;;;7.95;4.82;;;8.40;99.90;;;;;;4970799;28;20395;-77
2023/11/29 08:46:58;;;;;;;11.63;5.75;;;8.30;99.90;;;;;;4971778;28;20085;-70
2023/11/29 08:49:24;;;;;;;11.18;5.75;;;8.30;99.90;;;;;;4970889;28;20035;-75
2023/11/29 08:51:49;;;;;;;11.05;5.65;;;8.30;99.90;;;;;;4973814;28;20169;-76
2023/11/29 08:54:15;;;;;;;11.95;5.65;;;8.40;99.90;;;;;;4972033;28;20058;-77
2023/11/29 08:56:41;;;;;;;9.95;5.60;;;8.40;99.90;;;;;;4970248;28;20026;-76
2023/11/29 08:59:06;;;;;;;10.30;5.50;;;8.40;99.90;;;;;;4972096;28;20384;-76
2023/11/29 09:01:32;;;;;;;10.07;6.00;;;8.40;99.90;;;;;;4970004;28;20030;-77
2023/11/29 09:03:58;;;;;;;8.50;5.47;;;8.30;99.90;;;;;;4971998;28;20015;-77
2023/11/29 09:06:24;;;;;;;10.98;5.70;;;8.30;99.90;;;;;;4972001;28;20023;-76
2023/11/29 09:08:50;;;;;;;9.77;5.65;;;8.30;99.90;;;;;;4971029;28;20046;-77
2023/11/29 09:11:15;;;;;;;10.02;5.97;;;8.20;99.90;;;;;;4972107;28;20399;-77
2023/11/29 09:13:43;;;;;;;10.90;6.20;;;8.20;99.90;;;;;;4969874;28;20026;-77
2023/11/29 09:16:08;;;;;;;11.30;5.95;;;8.20;99.90;;;;;;4967939;28;20031;-72
2023/11/29 09:18:34;;;;;;;7.53;5.03;;;8.20;99.90;;;;;;4984616;28;20027;-77
2023/11/29 09:21:00;;;;;;;8.30;5.43;;;8.20;99.90;;;;;;4970374;28;20022;-77
2023/11/29 09:23:26;;;;;;;11.73;5.45;;;8.20;99.90;;;;;;4969816;28;20023;-76
2023/11/29 09:25:51;;;;;;;8.55;5.57;;;8.20;99.90;;;;;;4970041;28;20117;-77
2023/11/29 09:28:17;;;;;;;11.20;6.07;;;8.20;99.90;;;;;;4970260;28;20027;-75
2023/11/29 09:30:44;;;;;;;11.65;5.25;;;8.20;99.90;;;;;;4968657;28;20092;-77
2023/11/29 09:33:10;;;;;;;9.07;5.28;;;8.20;99.90;;;;;;4969908;28;20029;-77
2023/11/29 09:35:35;;;;;;;8.48;5.30;;;8.20;99.90;;;;;;4970140;28;20125;-77
2023/11/29 09:38:01;;;;;;;8.68;4.82;;;8.20;99.90;;;;;;4965128;28;20180;-77
2023/11/29 09:40:27;;;;;;;11.10;5.32;;;8.20;99.90;;;;;;4970172;28;20051;-77
2023/11/29 09:42:53;;;;;;;10.52;5.45;;;8.20;99.90;;;;;;4969934;28;20018;-77
2023/11/29 09:45:25;;;;;;;8.55;5.13;;;8.20;99.90;;;;;;4969504;28;20057;-77
2023/11/29 09:47:51;;;;;;;9.18;5.47;;;8.20;99.90;;;;;;4966376;28;20041;-75
2023/11/29 09:50:17;;;;;;;9.57;5.68;;;8.20;99.90;;;;;;4967992;28;20558;-77
2023/11/29 09:52:43;;;;;;;9.77;5.20;;;8.20;99.90;;;;;;4971181;28;20111;-76
2023/11/29 09:55:10;;;;;;;9.38;4.93;;;8.20;99.90;;;;;;4970806;28;20597;-77
2023/11/29 09:57:36;;;;;;;8.45;4.93;;;8.20;99.90;;;;;;4970982;28;20146;-77
2023/11/29 10:00:03;;;;;;;10.55;5.55;;;8.20;99.90;;;;;;4971116;28;20015;-76
2023/11/29 10:02:33;;;;;;;7.80;4.93;;;8.20;99.90;;;;;;4970752;28;20030;-76
2023/11/29 10:05:02;;;;;;;8.85;5.00;;;8.20;99.90;;;;;;4972849;28;20038;-77
2023/11/29 10:07:27;;;;;;;8.15;4.75;;;8.20;99.90;;;;;;4971145;28;20097;-78
2023/11/29 10:10:02;;;;;;;10.13;5.45;;;8.20;99.90;;;;;;4970674;28;20472;-77
2023/11/29 10:12:28;;;;;;;7.88;5.60;;;8.30;99.90;;;;;;4969552;28;20113;-78
2023/11/29 10:14:54;;;;;;;6.55;4.65;;;8.30;99.90;;;;;;4968442;28;20154;-78
2023/11/29 10:17:20;;;;;;;7.90;4.97;;;8.30;99.90;;;;;;4969885;28;20030;-77
2023/11/29 10:19:46;;;;;;;8.93;5.03;;;8.30;99.90;;;;;;4966315;28;20027;-78
2023/11/29 10:22:16;;;;;;;7.78;5.13;;;8.30;99.90;;;;;;4971848;28;20026;-78
2023/11/29 10:24:42;;;;;;;8.05;4.65;;;8.30;99.90;;;;;;4973373;28;20066;-78
2023/11/29 10:27:08;;;;;;;6.38;4.50;;;8.30;99.90;;;;;;4969045;28;20110;-78
2023/11/29 10:29:34;;;;;;;13.63;5.15;;;8.30;99.90;;;;;;4966956;28;20085;-79
2023/11/29 10:32:03;;;;;;;9.05;5.13;;;8.30;99.90;;;;;;4968368;28;20019;-79
2023/11/29 10:34:32;;;;;;;6.15;4.18;;;8.40;99.90;;;;;;4968961;28;20064;-77
2023/11/29 10:37:00;;;;;;;6.47;4.70;;;8.40;99.90;;;;;;4969109;28;20050;-78
2023/11/29 10:39:31;;;;;;;8.25;4.47;;;8.50;99.90;;;;;;4968454;28;20011;-78
2023/11/29 10:41:59;;;;;;;7.07;4.22;;;8.60;99.90;;;;;;4971814;28;20030;-77
2023/11/29 10:44:29;;;;;;;8.20;4.38;;;8.60;99.90;;;;;;4968275;28;20082;-79
2023/11/29 10:47:03;;;;;;;6.38;3.90;;;8.60;99.90;;;;;;4970717;28;20019;-78
2023/11/29 10:49:37;;;;;;;7.90;4.95;;;8.60;99.90;;;;;;4967672;28;20082;-78
2023/11/29 10:52:03;;;;;;;5.40;4.05;;;8.60;99.90;;;;;;4970265;28;20530;-78
2023/11/29 10:54:30;;;;;;;7.03;3.85;;;8.60;99.90;;;;;;4970216;28;20034;-78
2023/11/29 10:56:56;;;;;;;7.90;4.50;;;8.70;99.90;;;;;;4966505;28;20026;-78
2023/11/29 10:59:31;;;;;;;6.65;4.05;;;8.70;99.90;;;;;;4973095;28;20029;-79
2023/11/29 11:01:57;;;;;;;8.48;4.15;;;8.70;99.90;;;;;;4968123;28;20023;-79
2023/11/29 11:04:34;;;;;;;6.95;4.57;;;8.70;99.90;;;;;;4972751;28;20436;-79
2023/11/29 11:07:02;;;;;;;6.68;4.13;;;8.60;99.90;;;;;;4972443;28;20043;-77
2023/11/29 11:09:36;;;;;;;8.05;4.43;;;8.60;99.90;;;;;;4971168;28;20022;-77
2023/11/29 11:12:04;;;;;;;5.28;4.20;;;8.60;99.90;;;;;;4976643;28;20018;-78
2023/11/29 11:14:50;;;;;;;6.70;4.30;;;8.60;99.90;;;;;;4976553;28;20105;-78
2023/11/29 11:17:18;;;;;;;6.22;4.05;;;8.60;99.90;;;;;;4971376;28;20034;-79
2023/11/29 11:19:45;;;;;;;6.90;4.70;;;8.60;99.90;;;;;;4971413;28;20034;-77
2023/11/29 11:22:35;;;;;;;6.13;4.10;;;8.50;99.90;;;;;;4973855;28;20656;-78
2023/11/29 11:25:07;;;;;;;5.13;3.67;;;8.60;99.90;;;;;;4965441;28;20043;-78
2023/11/29 11:27:46;;;;;;;6.65;4.30;;;8.60;99.90;;;;;;4974297;28;20034;-79
2023/11/29 11:30:14;;;;;;;6.25;3.78;;;8.60;99.90;;;;;;4969050;28;20032;-79
2023/11/29 11:32:40;;;;;;;5.63;3.92;;;8.60;99.90;;;;;;4973001;28;20042;-79
2023/11/29 11:35:24;;;;;;;5.60;3.80;;;8.50;99.90;;;;;;4971764;28;20019;-79
2023/11/29 11:37:58;;;;;;;7.28;4.32;;;8.50;99.90;;;;;;4977587;28;20449;-78
2023/11/29 11:40:28;;;;;;;6.60;3.80;;;8.40;99.90;;;;;;4967563;28;20021;-79
2023/11/29 11:42:54;;;;;;;5.57;3.95;;;8.40;99.90;;;;;;4970619;28;20053;-79
2023/11/29 11:45:21;;;;;;;8.95;4.32;;;8.40;99.90;;;;;;4969249;28;20062;-78
2023/11/29 11:47:47;;;;;;;6.50;3.55;;;8.40;99.90;;;;;;4972669;28;20023;-77
2023/11/29 11:50:14;;;;;;;5.30;4.13;;;8.40;99.90;;;;;;4972459;28;20031;-79
2023/11/29 11:52:40;;;;;;;5.43;3.50;;;8.40;99.90;;;;;;4971610;28;20384;-78
2023/11/29 11:55:07;;;;;;;5.80;3.95;;;8.40;99.90;;;;;;4974281;28;20033;-78
2023/11/29 11:57:34;;;;;;;6.18;4.32;;;8.40;99.90;;;;;;4972602;28;20023;-77
2023/11/29 12:00:00;;;;;;;5.45;3.90;;;8.40;99.90;;;;;;4983017;28;20023;-77
2023/11/29 12:02:27;;;;;;;5.57;3.95;;;8.40;99.90;;;;;;4959248;28;20026;-78
2023/11/29 12:04:55;;;;;;;4.75;3.55;;;8.40;99.90;;;;;;4966873;28;20034;-77
2023/11/29 12:07:22;;;;;;;12.63;4.82;;;8.40;99.90;;;;;;4970819;28;20101;-77
2023/11/29 12:09:48;;;;;;;6.13;3.88;;;8.30;99.90;;;;;;4973696;28;20034;-77
2023/11/29 12:12:15;;;;;;;5.22;3.63;;;8.30;99.90;;;;;;4971161;28;20590;-76
2023/11/29 12:14:42;;;;;;;6.22;4.07;;;8.30;99.90;;;;;;4975903;28;20607;-78
2023/11/29 12:17:08;;;;;;;5.53;3.75;;;8.20;99.90;;;;;;4976694;28;20672;-78
2023/11/29 12:19:34;;;;;;;8.50;3.97;;;8.20;99.90;;;;;;4971725;28;20106;-77
2023/11/29 12:22:03;;;;;;;8.45;3.72;;;8.20;99.90;;;;;;4972996;28;20015;-77
2023/11/29 12:24:45;;;;;;;6.93;3.80;;;8.30;99.90;;;;;;4967580;28;20663;-78
2023/11/29 12:27:13;;;;;;;7.22;4.10;;;8.30;99.90;;;;;;4969908;28;20026;-78
2023/11/29 12:29:43;;;;;;;5.50;3.83;;;8.30;99.90;;;;;;4970958;28;20049;-79
2023/11/29 12:32:11;;;;;;;6.07;3.88;;;8.30;99.90;;;;;;4973638;28;20014;-78
2023/11/29 12:34:38;;;;;;;5.47;3.80;;;8.30;99.90;;;;;;4968259;28;20054;-78
2023/11/29 12:37:08;;;;;;;7.18;3.65;;;8.30;99.90;;;;;;4971031;28;20022;-79
2023/11/29 12:39:34;;;;;;;7.50;4.38;;;8.30;99.90;;;;;;4976397;28;20030;-77
2023/11/29 12:42:03;;;;;;;7.35;4.30;;;8.30;99.90;;;;;;4971393;28;20409;-78
2023/11/29 12:44:33;;;;;;;6.38;3.80;;;8.30;99.90;;;;;;4969000;28;20034;-79
2023/11/29 12:47:00;;;;;;;6.55;4.03;;;8.30;99.90;;;;;;4970402;28;20020;-77